createdAt,value
2023-04-06T00:00:51.253Z,93.00
2023-04-06T00:03:18.662Z,93.00
2023-04-06T00:05:45.951Z,93.00
2023-04-06T00:08:13.046Z,93.10
2023-04-06T00:10:40.441Z,93.10
2023-04-06T00:13:08.201Z,93.00
2023-04-06T00:15:35.537Z,93.20
2023-04-06T00:18:03.129Z,93.40
2023-04-06T00:20:30.439Z,93.50
2023-04-06T00:22:57.522Z,93.60
2023-04-06T00:25:24.703Z,93.70
2023-04-06T00:27:51.806Z,93.70
2023-04-06T00:30:18.963Z,93.80
2023-04-06T00:32:46.064Z,94.00
2023-04-06T00:35:13.196Z,94.20
2023-04-06T00:37:40.429Z,94.40
2023-04-06T00:40:07.872Z,94.50
2023-04-06T00:42:35.015Z,94.50
2023-04-06T00:45:02.149Z,94.40
2023-04-06T00:47:29.465Z,94.40
2023-04-06T00:49:57.178Z,94.40
2023-04-06T00:52:24.266Z,94.40
2023-04-06T00:54:51.706Z,94.70
2023-04-06T00:57:20.663Z,94.90
2023-04-06T00:59:53.641Z,95.20
2023-04-06T01:02:21.316Z,95.30
2023-04-06T01:04:51.516Z,95.50
2023-04-06T01:07:29.707Z,95.80
2023-04-06T01:10:25.567Z,96.10
2023-04-06T01:12:55.716Z,96.40
2023-04-06T01:15:42.260Z,96.50
2023-04-06T01:18:11.620Z,96.50
2023-04-06T01:20:44.607Z,96.70
2023-04-06T01:23:12.033Z,97.10
2023-04-06T01:25:45.090Z,97.40
2023-04-06T01:28:12.879Z,97.60
2023-04-06T01:31:02.842Z,97.70
2023-04-06T01:33:42.546Z,97.80
2023-04-06T01:36:12.982Z,98.00
2023-04-06T01:38:40.432Z,98.40
2023-04-06T01:41:08.399Z,98.70
2023-04-06T01:43:46.725Z,98.90
2023-04-06T01:46:14.314Z,99.00
2023-04-06T01:48:43.512Z,98.90
2023-04-06T01:51:25.917Z,99.20
2023-04-06T01:53:57.133Z,99.50
2023-04-06T01:56:32.299Z,99.70
2023-04-06T01:59:07.483Z,99.90
2023-04-06T02:01:39.944Z,99.90
2023-04-06T02:04:07.138Z,99.90
2023-04-06T02:06:34.281Z,99.90
2023-04-06T02:09:03.478Z,99.90
2023-04-06T02:11:31.282Z,99.90
2023-04-06T02:13:58.389Z,99.90
2023-04-06T02:16:30.039Z,99.90
2023-04-06T02:18:57.187Z,99.90
2023-04-06T02:21:24.408Z,99.90
2023-04-06T02:23:51.746Z,99.90
2023-04-06T02:26:18.846Z,99.90
2023-04-06T02:28:46.279Z,99.90
2023-04-06T02:31:14.762Z,99.90
2023-04-06T02:33:42.704Z,99.90
2023-04-06T02:36:10.836Z,99.90
2023-04-06T02:38:37.920Z,99.90
2023-04-06T02:41:05.219Z,99.90
2023-04-06T02:43:33.439Z,99.90
2023-04-06T02:46:30.019Z,99.90
2023-04-06T02:48:57.239Z,99.90
2023-04-06T02:51:26.358Z,99.90
2023-04-06T02:53:57.568Z,99.90
2023-04-06T02:56:25.041Z,99.90
2023-04-06T02:58:53.942Z,99.90
2023-04-06T03:01:24.631Z,99.90
2023-04-06T03:03:57.553Z,99.90
2023-04-06T03:06:27.408Z,99.90
2023-04-06T03:08:58.626Z,99.90
2023-04-06T03:11:27.501Z,99.90
2023-04-06T03:13:54.669Z,99.90
2023-04-06T03:16:21.949Z,99.90
2023-04-06T03:18:49.591Z,99.90
2023-04-06T03:21:16.647Z,99.90
2023-04-06T03:23:52.243Z,99.90
2023-04-06T03:26:19.486Z,99.90
2023-04-06T03:28:46.617Z,99.90
2023-04-06T03:31:14.505Z,99.90
2023-04-06T03:33:50.381Z,99.90
2023-04-06T03:36:23.002Z,99.90
2023-04-06T03:38:50.519Z,99.90
2023-04-06T03:41:17.632Z,99.90
2023-04-06T03:43:52.436Z,99.90
2023-04-06T03:46:19.604Z,99.90
2023-04-06T03:48:49.840Z,99.90
2023-04-06T03:51:18.740Z,99.90
2023-04-06T03:53:45.928Z,99.90
2023-04-06T03:56:12.990Z,99.90
2023-04-06T03:58:40.280Z,99.90
2023-04-06T04:01:07.346Z,99.90
2023-04-06T04:03:35.472Z,99.90
2023-04-06T04:06:02.720Z,99.90
2023-04-06T04:08:29.894Z,99.90
2023-04-06T04:10:57.114Z,99.90
2023-04-06T04:13:24.453Z,99.90
2023-04-06T04:15:53.853Z,99.90
2023-04-06T04:18:20.958Z,99.90
2023-04-06T04:20:48.099Z,99.90
2023-04-06T04:23:15.177Z,99.90
2023-04-06T04:25:42.381Z,99.90
2023-04-06T04:28:09.590Z,99.90
2023-04-06T04:30:38.271Z,99.90
2023-04-06T04:33:09.756Z,99.90
2023-04-06T04:35:36.949Z,99.90
2023-04-06T04:38:04.943Z,99.90
2023-04-06T04:40:33.224Z,99.90
2023-04-06T04:43:08.076Z,99.90
2023-04-06T04:45:35.867Z,99.90
2023-04-06T04:48:13.754Z,99.90
2023-04-06T04:50:51.174Z,99.90
2023-04-06T04:53:22.257Z,99.90
2023-04-06T04:55:51.023Z,99.90
2023-04-06T04:58:20.613Z,99.90
2023-04-06T05:00:57.592Z,99.90
2023-04-06T05:03:25.764Z,99.90
2023-04-06T05:06:06.092Z,99.90
2023-04-06T05:08:36.422Z,99.90
2023-04-06T05:11:03.649Z,99.90
2023-04-06T05:13:34.974Z,99.90
2023-04-06T05:16:07.968Z,99.90
2023-04-06T05:18:35.976Z,99.90
2023-04-06T05:21:04.171Z,99.90
2023-04-06T05:23:46.246Z,99.90
2023-04-06T05:26:13.365Z,99.90
2023-04-06T05:28:41.037Z,99.90
2023-04-06T05:31:08.230Z,99.90
2023-04-06T05:33:44.986Z,99.90
2023-04-06T05:36:15.792Z,99.90
2023-04-06T05:38:45.901Z,99.90
2023-04-06T05:41:31.728Z,99.90
2023-04-06T05:43:58.963Z,99.90
2023-04-06T05:46:27.003Z,99.90
2023-04-06T05:48:57.107Z,99.90
2023-04-06T05:51:28.564Z,99.90
2023-04-06T05:53:55.793Z,99.90
2023-04-06T05:56:24.640Z,99.90
2023-04-06T05:58:52.145Z,99.90
2023-04-06T06:01:25.305Z,99.90
2023-04-06T06:03:52.625Z,99.90
2023-04-06T06:06:20.400Z,99.90
2023-04-06T06:09:10.568Z,99.90
2023-04-06T06:11:43.310Z,99.90
2023-04-06T06:14:13.480Z,99.90
2023-04-06T06:16:42.093Z,99.90
2023-04-06T06:19:11.901Z,99.90
2023-04-06T06:21:39.651Z,99.90
2023-04-06T06:24:07.956Z,99.90
2023-04-06T06:26:37.961Z,99.90
2023-04-06T06:29:08.943Z,99.90
2023-04-06T06:31:39.007Z,99.90
2023-04-06T06:34:06.439Z,99.90
2023-04-06T06:36:36.193Z,99.90
2023-04-06T06:39:06.583Z,99.90
2023-04-06T06:41:33.966Z,99.90
2023-04-06T06:44:01.225Z,99.90
2023-04-06T06:46:29.485Z,99.90
2023-04-06T06:48:56.598Z,99.90
2023-04-06T06:51:23.693Z,99.90
2023-04-06T06:53:51.809Z,99.90
2023-04-06T06:56:18.913Z,99.90
2023-04-06T06:58:46.279Z,99.10
2023-04-06T07:01:13.633Z,98.40
2023-04-06T07:03:41.056Z,97.60
2023-04-06T07:06:08.509Z,98.10
2023-04-06T07:08:35.732Z,97.40
2023-04-06T07:11:03.716Z,96.40
2023-04-06T07:13:30.868Z,95.20
2023-04-06T07:15:59.507Z,92.40
2023-04-06T07:18:26.952Z,92.30
2023-04-06T07:20:54.227Z,93.00
2023-04-06T07:23:21.502Z,93.20
2023-04-06T07:25:48.607Z,93.00
2023-04-06T07:28:16.453Z,92.00
2023-04-06T07:30:43.772Z,91.20
2023-04-06T07:33:12.173Z,90.90
2023-04-06T07:35:40.430Z,90.60
2023-04-06T07:38:08.557Z,88.60
2023-04-06T07:40:38.205Z,88.10
2023-04-06T07:43:05.391Z,91.10
2023-04-06T07:45:32.559Z,87.80
2023-04-06T07:48:00.968Z,89.30
2023-04-06T07:50:28.664Z,86.80
2023-04-06T07:52:56.795Z,85.70
2023-04-06T07:55:23.990Z,85.80
2023-04-06T07:57:51.798Z,82.60
2023-04-06T08:00:19.175Z,84.50
2023-04-06T08:02:46.439Z,83.60
2023-04-06T08:05:13.640Z,83.20
2023-04-06T08:07:40.842Z,80.00
2023-04-06T08:10:08.072Z,80.40
2023-04-06T08:12:35.385Z,79.30
2023-04-06T08:15:03.536Z,78.70
2023-04-06T08:17:32.018Z,77.70
2023-04-06T08:20:00.558Z,78.50
2023-04-06T08:22:27.618Z,79.00
2023-04-06T08:24:54.755Z,78.30
2023-04-06T08:27:21.847Z,77.40
2023-04-06T08:29:50.547Z,78.90
2023-04-06T08:32:17.837Z,79.00
2023-04-06T08:34:45.020Z,77.30
2023-04-06T08:37:13.097Z,77.30
2023-04-06T08:39:40.244Z,75.80
2023-04-06T08:42:11.327Z,75.60
2023-04-06T08:44:38.798Z,75.80
2023-04-06T08:47:05.968Z,76.10
2023-04-06T08:49:33.026Z,75.90
2023-04-06T08:52:00.180Z,73.50
2023-04-06T08:54:27.294Z,71.60
2023-04-06T08:56:54.490Z,71.30
2023-04-06T08:59:21.602Z,71.80
2023-04-06T09:01:48.818Z,69.20
2023-04-06T09:04:16.340Z,71.00
2023-04-06T09:06:45.075Z,73.10
2023-04-06T09:09:12.780Z,72.80
2023-04-06T09:11:46.686Z,72.90
2023-04-06T09:14:13.854Z,72.90
2023-04-06T09:16:43.750Z,72.00
2023-04-06T09:19:10.945Z,72.10
2023-04-06T09:21:38.237Z,70.10
2023-04-06T09:24:07.799Z,74.30
2023-04-06T09:26:46.318Z,70.20
2023-04-06T09:29:22.945Z,71.00
2023-04-06T09:31:50.364Z,66.70
2023-04-06T09:34:24.555Z,67.90
2023-04-06T09:36:57.615Z,69.40
2023-04-06T09:39:25.005Z,68.60
2023-04-06T09:41:52.645Z,68.40
2023-04-06T09:44:21.137Z,69.30
2023-04-06T09:46:59.916Z,69.40
2023-04-06T09:49:31.518Z,68.60
2023-04-06T09:52:00.166Z,67.70
2023-04-06T09:54:29.183Z,69.30
2023-04-06T09:56:58.255Z,68.70
2023-04-06T09:59:28.337Z,69.60
2023-04-06T10:01:57.023Z,66.30
2023-04-06T10:04:48.864Z,67.80
2023-04-06T10:07:21.700Z,67.60
2023-04-06T10:09:48.821Z,65.90
2023-04-06T10:12:19.788Z,65.20
2023-04-06T10:14:46.889Z,65.50
2023-04-06T10:17:14.054Z,66.70
2023-04-06T10:19:50.580Z,66.80
2023-04-06T10:22:19.840Z,67.40
2023-04-06T10:24:46.954Z,64.50
2023-04-06T10:27:15.445Z,66.20
2023-04-06T10:29:44.050Z,65.30
2023-04-06T10:32:11.269Z,65.30
2023-04-06T10:34:41.035Z,64.50
2023-04-06T10:37:12.023Z,64.70
2023-04-06T10:39:46.541Z,63.40
2023-04-06T10:42:14.496Z,63.20
2023-04-06T10:44:45.784Z,62.60
2023-04-06T10:47:19.171Z,60.80
2023-04-06T10:49:46.382Z,64.30
2023-04-06T10:52:14.117Z,64.40
2023-04-06T10:55:17.744Z,59.70
2023-04-06T10:57:47.064Z,58.70
2023-04-06T11:00:14.425Z,59.60
2023-04-06T11:02:41.617Z,62.80
2023-04-06T11:05:09.044Z,64.00
2023-04-06T11:07:36.274Z,64.30
2023-04-06T11:12:33.589Z,64.70
2023-04-06T11:15:07.239Z,64.30
2023-04-06T11:17:34.971Z,65.20
2023-04-06T11:20:02.403Z,64.40
2023-04-06T11:22:29.518Z,65.00
2023-04-06T11:25:06.979Z,65.30
2023-04-06T11:27:34.573Z,64.50
2023-04-06T11:30:01.955Z,63.20
2023-04-06T11:32:29.183Z,57.60
2023-04-06T11:34:58.471Z,57.20
2023-04-06T11:37:28.026Z,59.30
2023-04-06T11:39:55.932Z,59.60
2023-04-06T11:42:26.755Z,61.50
2023-04-06T11:45:00.211Z,63.20
2023-04-06T11:47:31.514Z,62.70
2023-04-06T11:50:06.241Z,63.30
2023-04-06T11:52:33.654Z,63.40
2023-04-06T11:55:10.391Z,63.60
2023-04-06T11:57:37.446Z,59.40
2023-04-06T12:00:35.277Z,59.30
2023-04-06T12:03:02.611Z,59.50
2023-04-06T12:05:29.822Z,62.40
2023-04-06T12:07:59.088Z,60.30
2023-04-06T12:10:30.724Z,62.60
2023-04-06T12:12:57.874Z,60.60
2023-04-06T12:15:25.021Z,59.50
2023-04-06T12:17:52.212Z,59.90
2023-04-06T12:20:26.411Z,55.30
2023-04-06T12:22:55.270Z,55.50
2023-04-06T12:25:23.467Z,59.00
2023-04-06T12:27:50.853Z,59.40
2023-04-06T12:30:18.169Z,60.00
2023-04-06T12:32:45.501Z,60.30
2023-04-06T12:35:16.496Z,60.20
2023-04-06T12:37:43.649Z,60.10
2023-04-06T12:40:12.677Z,60.80
2023-04-06T12:42:40.033Z,62.90
2023-04-06T12:45:08.931Z,58.70
2023-04-06T12:47:37.196Z,57.20
2023-04-06T12:50:06.497Z,58.80
2023-04-06T12:52:36.020Z,58.20
2023-04-06T12:55:06.919Z,58.60
2023-04-06T12:57:34.009Z,58.20
2023-04-06T13:00:01.203Z,58.60
2023-04-06T13:02:28.589Z,58.10
2023-04-06T13:04:55.769Z,57.70
2023-04-06T13:07:22.975Z,57.50
2023-04-06T13:09:50.615Z,52.70
2023-04-06T13:12:17.797Z,53.60
2023-04-06T13:14:45.318Z,56.90
2023-04-06T13:17:12.438Z,57.10
2023-04-06T13:19:39.542Z,56.90
2023-04-06T13:22:06.681Z,56.10
2023-04-06T13:24:37.096Z,56.70
2023-04-06T13:27:04.390Z,59.80
2023-04-06T13:29:31.670Z,58.90
2023-04-06T13:31:59.809Z,59.50
2023-04-06T13:34:26.897Z,59.00
2023-04-06T13:36:54.103Z,57.70
2023-04-06T13:39:21.248Z,57.90
2023-04-06T13:41:48.298Z,57.40
2023-04-06T13:44:15.584Z,56.50
2023-04-06T13:46:44.190Z,54.40
2023-04-06T13:49:11.338Z,57.50
2023-04-06T13:51:38.600Z,57.10
2023-04-06T13:54:05.988Z,58.00
2023-04-06T13:56:33.065Z,57.70
2023-04-06T13:59:00.391Z,58.00
2023-04-06T14:01:27.761Z,58.00
2023-04-06T14:03:55.041Z,54.90
2023-04-06T14:06:31.079Z,57.70
2023-04-06T14:08:58.846Z,56.70
2023-04-06T14:11:27.225Z,56.20
2023-04-06T14:13:56.532Z,56.50
2023-04-06T14:16:26.289Z,56.90
2023-04-06T14:18:53.400Z,57.90
2023-04-06T14:21:20.972Z,57.40
2023-04-06T14:23:48.173Z,57.10
2023-04-06T14:26:15.246Z,55.10
2023-04-06T14:28:44.146Z,56.10
2023-04-06T14:31:14.281Z,56.50
2023-04-06T14:33:41.652Z,57.30
2023-04-06T14:36:09.119Z,57.10
2023-04-06T14:38:36.601Z,55.80
2023-04-06T14:41:03.666Z,55.60
2023-04-06T14:43:31.078Z,55.80
2023-04-06T14:46:02.347Z,56.40
2023-04-06T14:48:29.526Z,58.00
2023-04-06T14:50:56.673Z,56.90
2023-04-06T14:53:24.326Z,58.20
2023-04-06T14:55:52.328Z,56.80
2023-04-06T14:58:19.974Z,56.50
2023-04-06T15:00:48.075Z,58.30
2023-04-06T15:03:15.570Z,58.00
2023-04-06T15:05:42.813Z,57.40
2023-04-06T15:08:10.554Z,56.80
2023-04-06T15:10:37.775Z,55.70
2023-04-06T15:13:04.935Z,58.20
2023-04-06T15:15:32.013Z,57.70
2023-04-06T15:17:59.362Z,56.60
2023-04-06T15:20:27.224Z,57.60
2023-04-06T15:22:54.260Z,55.10
2023-04-06T15:25:21.326Z,55.00
2023-04-06T15:27:48.375Z,55.80
2023-04-06T15:30:15.421Z,54.60
2023-04-06T15:32:44.206Z,53.80
2023-04-06T15:35:11.651Z,53.90
2023-04-06T15:37:39.010Z,52.10
2023-04-06T15:40:06.380Z,52.20
2023-04-06T15:42:34.504Z,54.30
2023-04-06T15:45:01.648Z,55.60
2023-04-06T15:47:28.745Z,55.10
2023-04-06T15:49:55.791Z,56.60
2023-04-06T15:52:23.952Z,55.00
2023-04-06T15:54:53.586Z,55.40
2023-04-06T15:57:20.873Z,55.60
2023-04-06T15:59:47.996Z,56.20
2023-04-06T16:02:15.152Z,56.60
2023-04-06T16:04:42.259Z,57.30
2023-04-06T16:07:11.638Z,55.00
2023-04-06T16:09:38.683Z,55.50
2023-04-06T16:12:06.826Z,56.00
2023-04-06T16:14:33.839Z,53.60
2023-04-06T16:17:00.915Z,54.90
2023-04-06T16:19:28.087Z,55.50
2023-04-06T16:21:55.496Z,57.30
2023-04-06T16:24:23.218Z,55.90
2023-04-06T16:26:50.884Z,55.60
2023-04-06T16:29:18.031Z,56.20
2023-04-06T16:31:47.173Z,54.70
2023-04-06T16:34:14.245Z,56.60
2023-04-06T16:36:41.833Z,56.90
2023-04-06T16:39:09.043Z,57.20
2023-04-06T16:41:36.278Z,57.40
2023-04-06T16:44:03.454Z,57.40
2023-04-06T16:46:33.982Z,57.50
2023-04-06T16:49:01.255Z,56.30
2023-04-06T16:51:28.373Z,56.30
2023-04-06T16:53:55.436Z,57.50
2023-04-06T16:56:22.711Z,57.20
2023-04-06T16:58:49.717Z,57.10
2023-04-06T17:01:23.563Z,57.10
2023-04-06T17:03:51.107Z,58.20
2023-04-06T17:06:18.200Z,58.80
2023-04-06T17:08:45.872Z,58.50
2023-04-06T17:11:15.311Z,56.00
2023-04-06T17:13:43.190Z,57.20
2023-04-06T17:16:10.421Z,57.80
2023-04-06T17:18:37.516Z,58.50
2023-04-06T17:21:06.918Z,59.50
2023-04-06T17:23:33.980Z,60.60
2023-04-06T17:26:04.545Z,59.60
2023-04-06T17:28:32.484Z,61.00
2023-04-06T17:30:59.751Z,61.30
2023-04-06T17:33:27.390Z,62.10
2023-04-06T17:35:54.566Z,61.90
2023-04-06T17:38:23.082Z,61.90
2023-04-06T17:40:50.740Z,61.90
2023-04-06T17:43:18.085Z,61.80
2023-04-06T17:45:45.293Z,61.90
2023-04-06T17:48:12.397Z,62.00
2023-04-06T17:50:39.468Z,62.30
2023-04-06T17:53:06.896Z,62.30
2023-04-06T17:55:34.567Z,62.40
2023-04-06T17:58:01.741Z,62.10
2023-04-06T18:00:28.962Z,61.70
2023-04-06T18:02:56.483Z,61.40
2023-04-06T18:05:24.517Z,62.00
2023-04-06T18:07:52.728Z,63.40
2023-04-06T18:10:19.835Z,63.10
2023-04-06T18:12:47.079Z,64.20
2023-04-06T18:15:15.884Z,63.80
2023-04-06T18:17:43.612Z,64.00
2023-04-06T18:22:38.322Z,64.10
2023-04-06T18:25:06.374Z,64.30
2023-04-06T18:27:33.529Z,64.50
2023-04-06T18:30:02.609Z,64.70
2023-04-06T18:32:30.465Z,64.90
2023-04-06T18:34:57.957Z,65.30
2023-04-06T18:37:28.015Z,65.70
2023-04-06T18:39:55.252Z,66.20
2023-04-06T18:42:22.272Z,66.60
2023-04-06T18:44:49.336Z,66.90
2023-04-06T18:47:16.781Z,66.90
2023-04-06T18:49:43.904Z,67.20
2023-04-06T18:52:11.017Z,67.50
2023-04-06T18:54:38.123Z,67.50
2023-04-06T18:57:05.351Z,67.60
2023-04-06T18:59:32.473Z,68.00
2023-04-06T19:02:00.009Z,68.40
2023-04-06T19:04:29.290Z,68.60
2023-04-06T19:06:56.691Z,68.70
2023-04-06T19:09:23.741Z,69.00
2023-04-06T19:11:50.966Z,69.50
2023-04-06T19:14:18.086Z,69.90
2023-04-06T19:16:51.933Z,70.10
2023-04-06T19:19:20.443Z,70.40
2023-04-06T19:21:47.776Z,70.60
2023-04-06T19:24:14.831Z,71.00
2023-04-06T19:26:42.705Z,71.40
2023-04-06T19:29:09.992Z,71.60
2023-04-06T19:31:37.085Z,71.70
2023-04-06T19:34:04.577Z,71.70
2023-04-06T19:36:32.355Z,72.10
2023-04-06T19:38:59.516Z,72.40
2023-04-06T19:41:27.302Z,72.80
2023-04-06T19:43:54.387Z,73.20
2023-04-06T19:46:21.632Z,73.30
2023-04-06T19:48:48.779Z,73.50
2023-04-06T19:51:16.009Z,73.70
2023-04-06T19:53:43.117Z,73.70
2023-04-06T19:56:10.541Z,74.10
2023-04-06T19:58:38.115Z,74.50
2023-04-06T20:01:05.329Z,74.70
2023-04-06T20:03:33.209Z,74.80
2023-04-06T20:06:00.792Z,75.00
2023-04-06T20:08:29.741Z,75.10
2023-04-06T20:11:00.450Z,75.20
2023-04-06T20:13:28.664Z,76.10
2023-04-06T20:15:57.026Z,75.60
2023-04-06T20:18:24.106Z,75.80
2023-04-06T20:20:51.415Z,75.90
2023-04-06T20:23:18.547Z,76.10
2023-04-06T20:25:46.127Z,76.10
2023-04-06T20:28:13.296Z,76.10
2023-04-06T20:30:40.443Z,76.20
2023-04-06T20:33:07.757Z,76.30
2023-04-06T20:35:38.067Z,76.50
2023-04-06T20:38:05.139Z,76.70
2023-04-06T20:40:32.300Z,76.70
2023-04-06T20:42:59.370Z,77.50
2023-04-06T20:45:26.376Z,76.80
2023-04-06T20:47:53.559Z,77.00
2023-04-06T20:50:22.703Z,77.30
2023-04-06T20:52:49.847Z,77.40
2023-04-06T20:55:16.978Z,77.50
2023-04-06T20:57:46.133Z,77.80
2023-04-06T21:00:13.349Z,78.00
2023-04-06T21:02:41.076Z,78.80
2023-04-06T21:05:08.930Z,78.30
2023-04-06T21:07:36.866Z,78.50
2023-04-06T21:10:05.378Z,78.50
2023-04-06T21:12:32.559Z,78.50
2023-04-06T21:14:59.696Z,78.60
2023-04-06T21:17:26.779Z,78.60
2023-04-06T21:19:53.910Z,78.60
2023-04-06T21:22:21.012Z,78.60
2023-04-06T21:24:48.052Z,78.20
2023-04-06T21:27:15.365Z,78.30
2023-04-06T21:29:42.445Z,78.60
2023-04-06T21:32:09.490Z,78.70
2023-04-06T21:34:37.534Z,78.90
2023-04-06T21:37:04.643Z,78.90
2023-04-06T21:39:31.734Z,79.30
2023-04-06T21:41:59.934Z,78.70
2023-04-06T21:44:28.776Z,77.40
2023-04-06T21:46:55.859Z,77.00
2023-04-06T21:49:22.990Z,77.20
2023-04-06T21:51:50.029Z,77.50
2023-04-06T21:54:17.584Z,77.90
2023-04-06T21:56:44.988Z,78.60
2023-04-06T21:59:12.155Z,78.60
2023-04-06T22:01:39.227Z,77.90
2023-04-06T22:04:06.486Z,78.00
2023-04-06T22:06:33.582Z,77.20
2023-04-06T22:09:01.849Z,76.70
2023-04-06T22:11:28.946Z,77.10
2023-04-06T22:13:56.132Z,77.80
2023-04-06T22:16:23.253Z,77.50
2023-04-06T22:18:51.323Z,78.30
2023-04-06T22:21:18.395Z,77.60
2023-04-06T22:23:45.470Z,77.30
2023-04-06T22:26:12.501Z,77.30
2023-04-06T22:28:40.624Z,77.30
2023-04-06T22:31:07.856Z,77.70
2023-04-06T22:33:34.916Z,78.40
2023-04-06T22:36:02.437Z,78.70
2023-04-06T22:38:29.511Z,78.60
2023-04-06T22:40:56.667Z,78.90
2023-04-06T22:43:23.787Z,78.90
2023-04-06T22:45:50.841Z,79.00
2023-04-06T22:48:17.896Z,79.30
2023-04-06T22:50:45.219Z,79.70
2023-04-06T22:53:14.260Z,79.30
2023-04-06T22:55:41.370Z,79.00
2023-04-06T22:58:08.462Z,78.90
2023-04-06T23:00:35.586Z,79.00
2023-04-06T23:03:02.826Z,79.20
2023-04-06T23:05:29.886Z,78.90
2023-04-06T23:07:56.975Z,78.80
2023-04-06T23:10:24.052Z,79.40
2023-04-06T23:12:51.127Z,79.10
2023-04-06T23:15:18.347Z,79.20
2023-04-06T23:17:45.612Z,80.00
2023-04-06T23:20:12.698Z,79.80
2023-04-06T23:22:39.916Z,79.80
2023-04-06T23:25:07.987Z,80.30
2023-04-06T23:27:35.648Z,80.20
2023-04-06T23:30:02.725Z,79.40
2023-04-06T23:32:29.868Z,78.80
2023-04-06T23:34:57.053Z,78.80
2023-04-06T23:37:24.097Z,79.10
2023-04-06T23:39:51.682Z,79.20
2023-04-06T23:42:18.704Z,79.10
2023-04-06T23:44:45.736Z,79.60
2023-04-06T23:47:12.808Z,79.70
2023-04-06T23:49:39.849Z,80.00
2023-04-06T23:52:07.045Z,79.80
2023-04-06T23:54:34.036Z,80.10
2023-04-06T23:57:01.324Z,80.00
2023-04-06T23:59:28.395Z,80.30
